Time;durP1;ratioP1;P1;durP2;ratioP2;P2;SDS_P1;SDS_P2;PMS_P1;PMS_P2;Temp;Humidity;BMP_temperature;BMP_pressure;BME280_temperature;BME280_humidity;BME280_pressure;Samples;Min_cycle;Max_cycle;Signal;HPM_P1;HPM_P2
2022/07/17 00:01:13;;;;;;;3.67;2.20;;;;;;;21.22;47.26;101148.44;5072351;28;20025;-71
2022/07/17 00:03:38;;;;;;;4.10;2.30;;;;;;;21.17;47.64;101145.81;5075817;28;20032;-71
2022/07/17 00:06:04;;;;;;;5.63;2.33;;;;;;;21.16;46.79;101149.84;5076003;28;20491;-71
2022/07/17 00:08:31;;;;;;;3.88;2.60;;;;;;;21.12;47.84;101146.91;5040770;28;20549;-71
2022/07/17 00:10:57;;;;;;;7.05;2.65;;;;;;;21.09;46.87;101144.78;5075763;28;20024;-71
2022/07/17 00:13:22;;;;;;;3.70;2.25;;;;;;;21.09;47.82;101136.31;5057501;28;20033;-71
2022/07/17 00:15:48;;;;;;;7.65;2.92;;;;;;;21.06;48.10;101141.81;5074681;28;20028;-71
2022/07/17 00:18:13;;;;;;;7.05;2.35;;;;;;;21.02;48.46;101138.88;5057924;28;20051;-71
2022/07/17 00:20:39;;;;;;;4.53;2.47;;;;;;;21.00;49.06;101129.91;5068600;28;20024;-71
2022/07/17 00:23:04;;;;;;;5.28;2.20;;;;;;;21.01;48.30;101133.59;5075731;28;20033;-71
2022/07/17 00:25:32;;;;;;;3.78;2.22;;;;;;;20.95;48.51;101144.28;5075722;28;20032;-71
2022/07/17 00:27:58;;;;;;;5.15;2.78;;;;;;;20.97;48.77;101137.09;5069504;28;20029;-71
2022/07/17 00:30:24;;;;;;;4.05;2.45;;;;;;;20.94;46.91;101134.16;5057959;28;20029;-70
2022/07/17 00:32:49;;;;;;;5.70;2.10;;;;;;;20.92;46.56;101130.84;5075866;28;20033;-70
2022/07/17 00:35:15;;;;;;;3.72;2.40;;;;;;;20.89;47.19;101135.19;5071332;28;20397;-70
2022/07/17 00:37:45;;;;;;;3.45;1.95;;;;;;;20.88;47.63;101127.91;5075390;28;20036;-70
2022/07/17 00:40:12;;;;;;;4.50;2.42;;;;;;;20.87;48.42;101119.78;5058077;28;20025;-71
2022/07/17 00:42:39;;;;;;;4.85;2.42;;;;;;;20.82;48.19;101120.84;5074666;28;20028;-71
2022/07/17 00:45:05;;;;;;;4.55;2.47;;;;;;;20.77;47.88;101114.59;5058021;28;20089;-71
2022/07/17 00:47:31;;;;;;;7.25;2.55;;;;;;;20.76;48.59;101122.22;5074504;28;20028;-71
2022/07/17 00:49:56;;;;;;;4.22;2.10;;;;;;;20.73;48.21;101120.09;5040857;28;20028;-70
2022/07/17 00:52:21;;;;;;;5.80;2.50;;;;;;;20.72;49.03;101127.72;5057936;28;20036;-71
2022/07/17 00:54:47;;;;;;;3.53;2.13;;;;;;;20.67;48.84;101125.16;5040892;28;20055;-71
2022/07/17 00:57:14;;;;;;;4.05;2.20;;;;;;;20.64;48.68;101131.47;5073837;28;20048;-71
2022/07/17 00:59:40;;;;;;;4.88;2.50;;;;;;;20.56;47.67;101129.56;5075410;28;20374;-71
2022/07/17 01:02:06;;;;;;;4.55;2.33;;;;;;;20.53;47.90;101124.59;5074249;28;20033;-71
2022/07/17 01:04:32;;;;;;;5.80;2.47;;;;;;;20.52;49.05;101120.09;5021711;28;20051;-71
2022/07/17 01:06:59;;;;;;;4.15;2.45;;;;;;;20.48;49.40;101124.81;5065175;28;20025;-71
2022/07/17 01:09:25;;;;;;;4.78;2.70;;;;;;;20.40;50.52;101120.06;5056022;28;20070;-71
2022/07/17 01:11:50;;;;;;;3.42;1.80;;;;;;;20.39;49.53;101124.88;5057380;28;20117;-71
2022/07/17 01:14:16;;;;;;;3.95;2.70;;;;;;;20.36;49.24;101125.56;5074086;28;20036;-71
2022/07/17 01:16:42;;;;;;;3.60;2.20;;;;;;;20.33;48.76;101128.25;5057694;28;20145;-71
2022/07/17 01:19:09;;;;;;;2.85;2.17;;;;;;;20.34;49.25;101119.47;5071565;28;20039;-71
2022/07/17 01:21:41;;;;;;;4.60;2.40;;;;;;;20.32;48.21;101133.06;5077587;28;20031;-71
2022/07/17 01:24:07;;;;;;;;;;;;;;;20.24;49.15;101134.78;5079280;28;20040;-71
2022/07/17 01:26:32;;;;;;;6.60;2.60;;;;;;;20.22;49.33;101128.66;5078373;28;20361;-71
2022/07/17 01:28:58;;;;;;;3.35;2.38;;;;;;;20.21;48.80;101135.47;5077235;28;20044;-71
2022/07/17 01:31:23;;;;;;;5.00;2.45;;;;;;;20.17;48.91;101142.16;5078553;28;20033;-71
2022/07/17 01:33:49;;;;;;;6.50;2.22;;;;;;;20.12;48.13;101137.56;5078676;28;20031;-71
2022/07/17 01:36:14;;;;;;;4.60;2.60;;;;;;;20.09;49.56;101139.06;5060643;28;20027;-71
2022/07/17 01:38:40;;;;;;;4.68;2.78;;;;;;;20.10;49.99;101134.25;5060711;28;20032;-71
2022/07/17 01:41:05;;;;;;;4.75;2.40;;;;;;;20.06;49.61;101141.75;5077430;28;20024;-71
2022/07/17 01:43:32;;;;;;;2.80;1.92;;;;;;;20.04;49.68;101146.91;5078139;28;20366;-71
2022/07/17 01:45:57;;;;;;;4.53;2.67;;;;;;;20.01;49.79;101150.41;5078379;28;20071;-71
2022/07/17 01:48:26;;;;;;;5.43;2.25;;;;;;;20.00;49.46;101148.75;5078000;28;20082;-71
2022/07/17 01:50:51;;;;;;;3.65;2.20;;;;;;;19.97;49.89;101149.44;5077118;28;20028;-71
2022/07/17 01:53:17;;;;;;;6.63;2.67;;;;;;;19.91;49.79;101151.63;5060486;28;20043;-71
2022/07/17 01:55:42;;;;;;;4.60;2.10;;;;;;;19.94;48.90;101150.13;5110678;28;20048;-71
2022/07/17 01:58:07;;;;;;;2.55;1.77;;;;;;;19.90;49.35;101157.63;5076623;28;20413;-71
2022/07/17 02:00:33;;;;;;;3.42;2.55;;;;;;;19.88;49.24;101152.31;5076807;28;20024;-71
2022/07/17 02:02:58;;;;;;;4.28;2.53;;;;;;;19.85;49.62;101145.38;5076926;28;20032;-71
2022/07/17 02:05:25;;;;;;;3.83;2.40;;;;;;;19.81;49.67;101150.03;5078285;28;20029;-71
2022/07/17 02:07:51;;;;;;;7.32;2.28;;;;;;;19.79;49.60;101148.75;5060506;28;20020;-71
2022/07/17 02:10:16;;;;;;;5.03;2.15;;;;;;;19.77;49.63;101151.06;5059775;28;20040;-71
2022/07/17 02:12:43;;;;;;;5.45;2.47;;;;;;;19.75;49.64;101154.22;5077513;28;20041;-71
2022/07/17 02:15:08;;;;;;;5.30;2.30;;;;;;;19.74;48.88;101158.19;5077951;28;20028;-71
2022/07/17 02:17:34;;;;;;;4.50;2.60;;;;;;;19.73;48.78;101153.75;5077673;28;20047;-71
2022/07/17 02:19:59;;;;;;;2.70;2.20;;;;;;;19.72;49.62;101156.88;5104055;28;20017;-71
2022/07/17 02:22:25;;;;;;;4.22;2.22;;;;;;;19.70;49.31;101159.25;5077436;28;20074;-71
2022/07/17 02:24:50;;;;;;;3.60;2.28;;;;;;;19.68;49.24;101164.38;5068228;28;20080;-71
2022/07/17 02:27:16;;;;;;;3.22;2.40;;;;;;;19.66;50.33;101164.72;5072283;28;20037;-71
2022/07/17 02:29:41;;;;;;;3.22;2.25;;;;;;;19.63;49.96;101162.53;5076046;28;20055;-71
2022/07/17 02:32:07;;;;;;;4.72;2.20;;;;;;;19.61;49.31;101156.41;5075711;28;20055;-71
2022/07/17 02:34:32;;;;;;;4.78;2.45;;;;;;;19.54;49.35;101153.31;5077360;28;20395;-71
2022/07/17 02:36:58;;;;;;;3.38;2.13;;;;;;;19.58;49.61;101160.72;5077373;28;20031;-71
2022/07/17 02:39:23;;;;;;;3.08;2.05;;;;;;;19.55;49.59;101157.78;5077387;28;20029;-71
2022/07/17 02:41:48;;;;;;;3.53;2.10;;;;;;;19.55;49.63;101152.16;5075864;28;20029;-71
2022/07/17 02:44:14;;;;;;;3.63;2.10;;;;;;;19.50;49.77;101146.69;5072705;28;20029;-71
2022/07/17 02:46:39;;;;;;;7.50;2.30;;;;;;;19.47;50.22;101147.38;5077057;28;20032;-71
2022/07/17 02:49:06;;;;;;;4.57;2.55;;;;;;;19.42;50.29;101146.41;5076094;28;20392;-71
2022/07/17 02:51:31;;;;;;;3.55;2.20;;;;;;;19.43;50.64;101142.44;5075844;28;20025;-71
2022/07/17 02:53:57;;;;;;;6.93;2.70;;;;;;;19.42;50.78;101145.59;5077024;28;20503;-71
2022/07/17 02:56:23;;;;;;;4.75;2.13;;;;;;;19.37;50.50;101142.97;5075679;28;20024;-71
2022/07/17 02:58:48;;;;;;;4.47;2.45;;;;;;;19.34;51.11;101130.38;5072370;28;20508;-71
2022/07/17 03:01:14;;;;;;;4.35;2.78;;;;;;;19.32;51.55;101126.25;5072504;28;20107;-71
2022/07/17 03:03:40;;;;;;;5.47;2.60;;;;;;;19.28;51.27;101120.47;5077047;28;20024;-71
2022/07/17 03:06:05;;;;;;;3.33;2.40;;;;;;;19.26;51.44;101125.63;5076483;28;20590;-71
2022/07/17 03:08:31;;;;;;;5.55;2.30;;;;;;;19.23;51.62;101120.66;5075743;28;20032;-71
2022/07/17 03:10:56;;;;;;;4.82;2.53;;;;;;;19.22;51.40;101124.63;5075280;28;20036;-71
2022/07/17 03:13:22;;;;;;;6.15;2.67;;;;;;;19.09;52.06;101120.88;5076612;28;20028;-71
2022/07/17 03:15:47;;;;;;;6.65;2.88;;;;;;;19.00;53.01;101127.69;5076745;28;20039;-71
2022/07/17 03:18:13;;;;;;;3.70;2.63;;;;;;;18.92;54.33;101124.59;5076403;28;20489;-71
2022/07/17 03:20:38;;;;;;;6.13;2.40;;;;;;;18.90;53.61;101126.91;5070790;28;20036;-71
2022/07/17 03:23:04;;;;;;;3.25;2.58;;;;;;;18.92;53.03;101118.97;5076480;28;20036;-71
2022/07/17 03:25:29;;;;;;;3.88;2.67;;;;;;;18.94;52.96;101125.09;5075051;28;20020;-71
2022/07/17 03:27:55;;;;;;;5.35;2.50;;;;;;;18.91;52.43;101124.91;5074946;28;20036;-71
2022/07/17 03:30:20;;;;;;;3.88;2.70;;;;;;;18.88;53.21;101125.59;5058495;28;20493;-71
2022/07/17 03:32:46;;;;;;;8.90;2.78;;;;;;;18.90;52.88;101129.72;5076403;28;20098;-71
2022/07/17 03:35:11;;;;;;;4.03;2.17;;;;;;;18.88;52.32;101131.22;5076290;28;20029;-71
2022/07/17 03:37:37;;;;;;;4.75;2.70;;;;;;;18.90;52.82;101129.72;5076148;28;20036;-71
2022/07/17 03:40:05;;;;;;;4.43;2.20;;;;;;;18.93;52.80;101131.84;5076369;28;20032;-71
2022/07/17 03:42:31;;;;;;;4.47;2.38;;;;;;;18.90;52.57;101124.09;5057435;28;20025;-71
2022/07/17 03:44:56;;;;;;;5.25;2.67;;;;;;;18.93;52.44;101131.84;5058270;28;20492;-71
2022/07/17 03:47:22;;;;;;;7.45;2.65;;;;;;;18.90;53.30;101124.09;5058157;28;20071;-71
2022/07/17 03:49:47;;;;;;;5.88;2.83;;;;;;;18.90;53.17;101126.09;5075979;28;20033;-71
2022/07/17 03:52:13;;;;;;;4.75;2.47;;;;;;;18.90;53.26;101124.09;5075833;28;20025;-71
2022/07/17 03:54:38;;;;;;;3.78;2.38;;;;;;;18.90;53.01;101118.47;5075871;28;20550;-71
2022/07/17 03:57:04;;;;;;;3.33;2.17;;;;;;;18.86;53.46;101113.81;5073002;28;20045;-71
2022/07/17 03:59:29;;;;;;;6.75;2.40;;;;;;;18.86;53.48;101125.09;5069575;28;20031;-71
2022/07/17 04:01:54;;;;;;;6.65;2.42;;;;;;;18.84;53.42;101119.81;5075750;28;20032;-71
2022/07/17 04:04:21;;;;;;;5.13;2.42;;;;;;;18.87;53.23;101118.31;5074945;28;20497;-71
2022/07/17 04:06:46;;;;;;;3.10;2.17;;;;;;;18.84;52.81;101125.44;5074470;28;20036;-71
2022/07/17 04:09:12;;;;;;;8.50;2.85;;;;;;;18.80;53.81;101115.19;5108111;28;20473;-71
2022/07/17 04:11:37;;;;;;;3.50;2.20;;;;;;;18.80;53.47;101116.00;5075354;28;20025;-71
2022/07/17 04:14:03;;;;;;;5.90;2.30;;;;;;;18.81;53.84;101114.03;5075927;28;20036;-71
2022/07/17 04:16:28;;;;;;;3.95;2.30;;;;;;;18.80;53.26;101116.00;5069978;28;20047;-71
2022/07/17 04:18:54;;;;;;;3.60;2.40;;;;;;;18.79;53.47;101119.16;5067576;28;20033;-71
2022/07/17 04:21:19;;;;;;;3.22;2.17;;;;;;;18.80;53.26;101118.81;5075940;28;20025;-71
2022/07/17 04:23:45;;;;;;;5.45;2.50;;;;;;;18.79;52.63;101121.97;5075714;28;20051;-71
2022/07/17 04:26:10;;;;;;;3.90;2.30;;;;;;;18.74;53.57;101125.78;5074059;28;20048;-71
2022/07/17 04:28:36;;;;;;;5.60;2.63;;;;;;;18.73;53.96;101124.13;5074612;28;20074;-71
2022/07/17 04:31:01;;;;;;;3.53;1.95;;;;;;;18.72;52.97;101119.63;5075745;28;20074;-71
2022/07/17 04:33:27;;;;;;;3.80;2.30;;;;;;;18.74;53.19;101125.78;5075510;28;20028;-71
2022/07/17 04:35:52;;;;;;;5.75;2.47;;;;;;;18.73;53.35;101129.75;5074542;28;20094;-71
2022/07/17 04:38:18;;;;;;;6.55;2.45;;;;;;;18.74;53.38;101132.22;5074473;28;20028;-71
2022/07/17 04:40:43;;;;;;;3.30;2.17;;;;;;;18.75;52.38;101133.09;5074276;28;20025;-71
2022/07/17 04:43:09;;;;;;;2.78;2.03;;;;;;;18.72;53.66;101130.88;5057143;28;20032;-71
2022/07/17 04:45:34;;;;;;;4.72;2.40;;;;;;;18.75;53.63;101141.53;5074244;28;20032;-71
2022/07/17 04:48:00;;;;;;;5.07;2.13;;;;;;;18.73;53.72;101141.00;5075567;28;20032;-71
2022/07/17 04:50:26;;;;;;;6.50;2.45;;;;;;;18.72;53.63;101137.34;5075182;28;20028;-71
2022/07/17 04:52:51;;;;;;;4.68;2.17;;;;;;;18.73;53.64;101141.00;5075019;28;20047;-71
2022/07/17 04:55:16;;;;;;;4.82;2.28;;;;;;;18.74;53.57;101139.84;5060787;28;20104;-71
2022/07/17 04:57:42;;;;;;;4.95;2.40;;;;;;;18.69;53.43;101145.63;5077736;28;20037;-71
2022/07/17 05:00:08;;;;;;;3.25;2.28;;;;;;;18.72;54.24;101142.13;5079309;28;20111;-71
2022/07/17 05:02:34;;;;;;;3.95;2.10;;;;;;;18.74;54.49;101146.31;5079587;28;20028;-73
2022/07/17 05:05:00;;;;;;;5.30;2.30;;;;;;;18.72;54.56;101140.16;5079216;28;20481;-71
2022/07/17 05:07:25;;;;;;;4.03;2.40;;;;;;;18.73;54.62;101143.81;5077663;28;20111;-71
2022/07/17 05:09:51;;;;;;;3.17;2.10;;;;;;;18.74;54.83;101149.13;5077624;28;20033;-71
2022/07/17 05:12:16;;;;;;;4.93;2.40;;;;;;;18.80;54.09;101146.94;5079032;28;20565;-71
2022/07/17 05:14:42;;;;;;;2.85;2.05;;;;;;;18.84;54.60;101149.94;5078881;28;20028;-71
2022/07/17 05:17:07;;;;;;;4.88;2.20;;;;;;;18.89;55.16;101149.78;5061374;28;20082;-71
2022/07/17 05:19:33;;;;;;;2.72;2.08;;;;;;;18.95;54.75;101143.63;5072650;28;20376;-71
2022/07/17 05:21:58;;;;;;;5.97;2.20;;;;;;;19.03;54.91;101144.75;5061216;28;20020;-71
2022/07/17 05:24:24;;;;;;;5.15;2.50;;;;;;;19.10;55.11;101147.03;5024741;28;20096;-71
2022/07/17 05:26:49;;;;;;;5.85;2.38;;;;;;;19.16;55.14;101154.97;5072763;28;20028;-71
2022/07/17 05:29:15;;;;;;;6.70;2.95;;;;;;;19.25;55.28;101163.41;5078803;28;20029;-71
2022/07/17 05:31:40;;;;;;;7.88;2.45;;;;;;;19.34;54.10;101158.56;5078665;28;20078;-71
2022/07/17 05:34:06;;;;;;;5.85;2.25;;;;;;;19.45;54.06;101155.38;5078481;28;20416;-71
2022/07/17 05:36:31;;;;;;;3.20;2.30;;;;;;;19.56;53.98;101160.28;5078566;28;20036;-71
2022/07/17 05:38:57;;;;;;;3.88;2.25;;;;;;;19.68;53.90;101151.13;5078569;28;20032;-71
2022/07/17 05:41:22;;;;;;;4.32;2.20;;;;;;;19.79;54.10;101143.91;5078073;28;20024;-71
2022/07/17 05:43:48;;;;;;;2.75;2.00;;;;;;;19.93;53.39;101145.66;5078237;28;20025;-71
2022/07/17 05:46:13;;;;;;;3.15;2.15;;;;;;;20.05;53.48;101157.00;5078690;28;20024;-71
2022/07/17 05:48:39;;;;;;;4.40;2.30;;;;;;;20.17;52.83;101148.63;5065871;28;20036;-71
2022/07/17 05:51:04;;;;;;;2.95;2.10;;;;;;;20.30;52.54;101155.16;5077955;28;20041;-71
2022/07/17 05:53:30;;;;;;;6.68;2.45;;;;;;;20.42;52.99;101143.94;5078393;28;20035;-71
2022/07/17 05:55:55;;;;;;;5.32;2.30;;;;;;;20.56;52.44;101154.97;5076938;28;20024;-71
2022/07/17 05:58:21;;;;;;;4.32;2.45;;;;;;;20.69;51.84;101153.00;5077463;28;20506;-63
2022/07/17 06:00:48;;;;;;;3.45;2.17;;;;;;;20.82;51.47;101156.72;5071908;28;20033;-63
2022/07/17 06:03:14;;;;;;;2.67;2.10;;;;;;;20.93;51.07;101152.28;5076977;28;20059;-63
2022/07/17 06:05:39;;;;;;;4.88;2.25;;;;;;;21.05;50.75;101151.47;5092653;28;20028;-63
2022/07/17 06:08:05;;;;;;;5.68;2.50;;;;;;;21.17;50.67;101157.97;5056686;28;20032;-63
2022/07/17 06:10:30;;;;;;;4.85;2.25;;;;;;;21.30;50.30;101153.16;5052393;28;20474;-63
2022/07/17 06:12:56;;;;;;;3.17;1.98;;;;;;;21.41;50.12;101160.00;5073652;28;20039;-63
2022/07/17 06:15:22;;;;;;;3.65;2.08;;;;;;;21.57;49.95;101160.16;5076586;28;20029;-63
2022/07/17 06:17:47;;;;;;;3.38;2.03;;;;;;;21.71;49.71;101164.63;5043284;28;20059;-63
2022/07/17 06:20:13;;;;;;;2.35;1.73;;;;;;;21.85;49.13;101165.91;5066815;28;20052;-64
2022/07/17 06:22:39;;;;;;;3.40;1.90;;;;;;;22.01;48.55;101170.84;5058330;28;20039;-64
2022/07/17 06:25:05;;;;;;;4.32;2.00;;;;;;;22.12;48.38;101179.63;5092394;28;20085;-64
2022/07/17 06:27:30;;;;;;;7.20;2.05;;;;;;;22.23;48.06;101183.66;5056411;28;20525;-64
2022/07/17 06:29:55;;;;;;;7.57;2.22;;;;;;;22.36;47.54;101182.44;5059757;28;20054;-64
2022/07/17 06:32:21;;;;;;;2.50;1.75;;;;;;;22.49;47.44;101188.91;5059553;28;20032;-64
2022/07/17 06:34:46;;;;;;;5.65;1.90;;;;;;;22.63;47.20;101194.97;5073160;28;20025;-64
2022/07/17 06:37:12;;;;;;;4.88;1.98;;;;;;;22.76;47.04;101195.75;5026507;28;20025;-64
2022/07/17 06:39:37;;;;;;;3.47;1.92;;;;;;;22.86;46.82;101198.06;5076249;28;20025;-64
2022/07/17 06:42:03;;;;;;;4.53;1.80;;;;;;;22.99;46.24;101196.03;5059123;28;20029;-64
2022/07/17 06:44:28;;;;;;;3.80;1.77;;;;;;;23.10;46.05;101191.50;5059650;28;20504;-64
2022/07/17 06:46:54;;;;;;;6.45;1.60;;;;;;;23.20;45.52;101198.63;5076978;28;20086;-64
2022/07/17 06:49:19;;;;;;;7.78;2.22;;;;;;;23.25;45.38;101194.69;5075929;28;20085;-64
2022/07/17 06:51:45;;;;;;;2.78;1.70;;;;;;;23.28;45.04;101197.63;5059209;28;20028;-64
2022/07/17 06:54:15;;;;;;;5.03;2.10;;;;;;;23.35;45.25;101202.66;5059556;28;20028;-65
2022/07/17 06:56:41;;;;;;;3.17;1.90;;;;;;;23.38;45.53;101204.78;5042298;28;20101;-64
2022/07/17 06:59:09;;;;;;;4.25;1.90;;;;;;;23.38;45.25;101214.09;5059147;28;20028;-64
2022/07/17 07:01:35;;;;;;;4.38;1.73;;;;;;;23.37;45.21;101206.78;5075075;28;20043;-64
2022/07/17 07:04:01;;;;;;;3.92;1.63;;;;;;;23.41;45.44;101207.69;5059334;28;20031;-64
2022/07/17 07:06:26;;;;;;;5.72;1.92;;;;;;;23.44;45.31;101208.16;5075644;28;20032;-64
2022/07/17 07:08:52;;;;;;;3.55;1.90;;;;;;;23.47;45.12;101202.56;5075504;28;20040;-64
2022/07/17 07:11:17;;;;;;;5.47;2.00;;;;;;;23.46;45.04;101208.59;5075390;28;20036;-64
2022/07/17 07:13:43;;;;;;;3.50;1.77;;;;;;;23.42;45.38;101209.31;5075774;28;20393;-64
2022/07/17 07:16:08;;;;;;;3.40;1.40;;;;;;;23.45;45.48;101204.94;5042486;28;20044;-64
2022/07/17 07:18:33;;;;;;;4.75;1.65;;;;;;;23.46;45.49;101208.59;5056614;28;20090;-64
2022/07/17 07:20:59;;;;;;;2.45;1.85;;;;;;;23.47;45.47;101202.56;5042272;28;20385;-64
2022/07/17 07:23:24;;;;;;;3.08;1.73;;;;;;;23.44;45.50;101213.81;5075182;28;20481;-64
2022/07/17 07:25:50;;;;;;;4.20;2.00;;;;;;;23.48;45.54;101211.91;5076236;28;20039;-65
2022/07/17 07:28:16;;;;;;;2.42;1.75;;;;;;;23.52;45.34;101221.34;5075634;28;20037;-64
2022/07/17 07:30:41;;;;;;;3.60;1.70;;;;;;;23.61;46.04;101210.63;5055279;28;20025;-65
2022/07/17 07:33:07;;;;;;;3.90;1.77;;;;;;;23.70;45.54;101208.41;5070771;28;20071;-64
2022/07/17 07:35:32;;;;;;;3.53;1.60;;;;;;;23.86;45.37;101216.94;5074915;28;20094;-65
2022/07/17 07:37:57;;;;;;;2.65;1.70;;;;;;;24.04;44.95;101206.00;5058696;28;20043;-64
2022/07/17 07:40:23;;;;;;;3.55;1.60;;;;;;;24.21;45.02;101219.81;5047350;28;20028;-64
2022/07/17 07:42:48;;;;;;;2.78;1.80;;;;;;;24.38;44.82;101223.44;5058071;28;20377;-64
2022/07/17 07:45:14;;;;;;;3.60;1.65;;;;;;;24.53;44.09;101222.56;5075351;28;20035;-64
2022/07/17 07:47:43;;;;;;;5.18;1.90;;;;;;;24.74;43.76;101214.53;5058408;28;20086;-64
2022/07/17 07:50:09;;;;;;;2.70;1.42;;;;;;;24.97;43.62;101213.75;5058613;28;20036;-65
2022/07/17 07:52:35;;;;;;;2.40;1.55;;;;;;;25.19;43.67;101226.41;5039260;28;20509;-64
2022/07/17 07:55:00;;;;;;;4.00;1.60;;;;;;;25.36;42.82;101210.88;5074972;28;20024;-65
2022/07/17 07:57:25;;;;;;;2.53;1.50;;;;;;;25.56;42.10;101215.28;5075830;28;20105;-64
2022/07/17 07:59:51;;;;;;;4.18;1.50;;;;;;;25.80;42.07;101221.78;5058042;28;20036;-64
2022/07/17 08:02:16;;;;;;;3.45;1.60;;;;;;;26.01;41.96;101216.47;5091743;28;20028;-65
2022/07/17 08:04:42;;;;;;;4.43;2.00;;;;;;;26.25;41.22;101218.03;5058107;28;20028;-64
2022/07/17 08:07:07;;;;;;;3.53;1.52;;;;;;;26.42;41.16;101213.81;5075931;28;20033;-64
2022/07/17 08:09:33;;;;;;;4.10;1.67;;;;;;;26.56;40.23;101218.09;5057784;28;20028;-64
2022/07/17 08:11:58;;;;;;;2.97;1.40;;;;;;;26.76;40.09;101208.16;5058192;28;20442;-64
2022/07/17 08:14:24;;;;;;;3.35;1.48;;;;;;;26.95;39.32;101208.00;5074773;28;20033;-64
2022/07/17 08:16:49;;;;;;;4.63;1.60;;;;;;;27.11;39.74;101209.81;5057080;28;20029;-65
2022/07/17 08:19:15;;;;;;;4.10;1.55;;;;;;;27.25;40.22;101218.53;5068452;28;20033;-64
2022/07/17 08:21:40;;;;;;;2.45;1.40;;;;;;;27.48;38.58;101214.69;5091251;28;20089;-64
2022/07/17 08:24:05;;;;;;;4.43;1.70;;;;;;;27.61;38.80;101216.84;5057778;28;20024;-64
2022/07/17 08:26:31;;;;;;;3.88;1.60;;;;;;;27.75;38.72;101210.44;5057630;28;20036;-64
2022/07/17 08:28:56;;;;;;;3.65;1.60;;;;;;;27.90;38.10;101213.44;5058884;28;20040;-64
2022/07/17 08:31:22;;;;;;;3.05;1.80;;;;;;;28.07;38.12;101209.88;5078482;28;20106;-65
2022/07/17 08:33:47;;;;;;;3.80;1.40;;;;;;;28.20;37.95;101210.38;5078582;28;20035;-69
2022/07/17 08:36:13;;;;;;;4.30;1.50;;;;;;;28.32;37.33;101210.03;5042230;28;20025;-68
2022/07/17 08:38:38;;;;;;;2.60;1.50;;;;;;;28.40;36.64;101210.91;5078043;28;20028;-66
2022/07/17 08:41:04;;;;;;;4.28;1.50;;;;;;;28.53;36.72;101200.81;5061832;28;20029;-66
2022/07/17 08:43:29;;;;;;;4.93;1.50;;;;;;;28.61;36.53;101208.19;5078591;28;20039;-66
2022/07/17 08:45:55;;;;;;;5.55;1.60;;;;;;;28.68;36.27;101208.22;5061878;28;20043;-66
2022/07/17 08:48:20;;;;;;;3.08;1.63;;;;;;;28.66;35.63;101207.78;5027035;28;20036;-66
2022/07/17 08:50:46;;;;;;;3.90;1.70;;;;;;;28.69;35.76;101206.97;5044835;28;20435;-66
2022/07/17 08:53:11;;;;;;;3.22;1.35;;;;;;;28.86;35.32;101199.72;5078218;28;20029;-66
2022/07/17 08:55:37;;;;;;;3.55;1.38;;;;;;;28.99;35.46;101193.63;5076399;28;20024;-66
2022/07/17 08:58:04;;;;;;;3.70;1.50;;;;;;;29.06;36.14;101196.50;5061242;28;20139;-66
2022/07/17 09:00:30;;;;;;;3.97;1.60;;;;;;;29.17;35.54;101198.19;5056977;28;20508;-67
2022/07/17 09:03:07;;;;;;;3.60;1.52;;;;;;;29.29;35.88;101199.03;5078228;28;20043;-66
2022/07/17 09:05:37;;;;;;;4.57;1.30;;;;;;;29.39;35.06;101195.34;5061452;28;20104;-66
2022/07/17 09:08:03;;;;;;;1.95;1.30;;;;;;;29.52;34.91;101198.63;5056179;28;20036;-66
2022/07/17 09:10:42;;;;;;;2.38;1.40;;;;;;;29.58;34.16;101197.00;5078021;28;20043;-66
2022/07/17 09:13:21;;;;;;;4.50;1.50;;;;;;;29.66;34.13;101190.09;5058351;28;20029;-66
2022/07/17 09:15:47;;;;;;;5.32;1.48;;;;;;;29.79;33.98;101179.84;5071201;28;20443;-66
2022/07/17 09:18:13;;;;;;;3.20;1.45;;;;;;;29.89;33.79;101183.91;5060881;28;20056;-66
2022/07/17 09:20:44;;;;;;;4.85;1.75;;;;;;;29.96;33.22;101181.06;5055629;28;20090;-67
2022/07/17 09:23:10;;;;;;;3.60;1.35;;;;;;;30.09;33.17;101180.63;5052869;28;20041;-66
2022/07/17 09:25:44;;;;;;;3.45;1.33;;;;;;;30.20;33.06;101176.53;5077401;28;20032;-66
2022/07/17 09:28:11;;;;;;;3.80;1.40;;;;;;;30.27;33.33;101169.97;5078078;28;20028;-68
2022/07/17 09:30:37;;;;;;;5.10;1.40;;;;;;;30.40;32.79;101176.88;5044453;28;20033;-68
2022/07/17 09:33:06;;;;;;;2.20;1.27;;;;;;;30.49;32.18;101176.44;5070059;28;20068;-68
2022/07/17 09:35:32;;;;;;;4.72;1.30;;;;;;;30.58;32.02;101170.25;5077244;28;20035;-68
2022/07/17 09:37:57;;;;;;;2.25;1.10;;;;;;;30.60;31.62;101177.22;5077443;28;20037;-68
2022/07/17 09:43:08;;;;;;;3.63;1.38;;;;;;;30.70;31.66;101172.66;5058625;28;20036;-68
2022/07/17 09:45:33;;;;;;;2.88;1.27;;;;;;;30.74;31.63;101164.88;5078663;28;20082;-68
2022/07/17 09:47:59;;;;;;;1.33;1.10;;;;;;;30.85;31.63;101168.53;5060733;28;20024;-67
2022/07/17 09:50:24;;;;;;;2.05;1.30;;;;;;;30.91;31.31;101166.84;5076866;28;20448;-68
2022/07/17 09:52:50;;;;;;;2.50;1.30;;;;;;;31.04;31.50;101172.13;5060675;28;20056;-68
2022/07/17 09:55:16;;;;;;;5.35;1.30;;;;;;;31.12;31.15;101160.16;5060514;28;20032;-68
2022/07/17 09:57:42;;;;;;;4.30;1.30;;;;;;;31.24;32.13;101158.84;5076790;28;20405;-70
2022/07/17 10:00:12;;;;;;;5.13;1.13;;;;;;;31.30;30.22;101162.09;5024783;28;20575;-66
2022/07/17 10:02:42;;;;;;;4.60;1.10;;;;;;;31.32;29.95;101163.28;5061296;28;20052;-66
2022/07/17 10:05:12;;;;;;;2.47;0.93;;;;;;;31.36;29.82;101154.69;5060194;28;20036;-69
2022/07/17 10:07:40;;;;;;;5.18;1.08;;;;;;;31.44;29.31;101164.06;5060102;28;20028;-69
2022/07/17 10:10:07;;;;;;;4.22;1.10;;;;;;;31.49;28.82;101147.19;5043767;28;20469;-70
2022/07/17 10:12:34;;;;;;;3.30;1.10;;;;;;;31.50;29.43;101150.88;5060126;28;20086;-70
2022/07/17 10:14:59;;;;;;;2.13;1.10;;;;;;;31.61;29.48;101154.47;5060261;28;20033;-71
2022/07/17 10:17:24;;;;;;;1.25;0.90;;;;;;;31.61;29.38;101163.09;5040834;28;20551;-70
2022/07/17 10:19:54;;;;;;;1.73;1.00;;;;;;;31.65;28.99;101158.13;5075059;28;20035;-70
2022/07/17 10:22:19;;;;;;;1.20;0.90;;;;;;;31.72;28.99;101152.31;5043764;28;20058;-66
2022/07/17 10:24:55;;;;;;;2.92;1.02;;;;;;;31.84;28.94;101145.22;5059782;28;20020;-66
2022/07/17 10:27:21;;;;;;;2.03;0.90;;;;;;;31.81;28.17;101143.19;5076216;28;20037;-67
2022/07/17 10:29:47;;;;;;;2.67;1.02;;;;;;;31.86;28.74;101141.94;5093202;28;20078;-67
2022/07/17 10:32:17;;;;;;;2.80;0.90;;;;;;;32.00;28.58;101142.63;5059768;28;20029;-67
2022/07/17 10:34:48;;;;;;;3.78;1.10;;;;;;;32.07;28.39;101144.63;5059675;28;20032;-67
2022/07/17 10:37:21;;;;;;;1.33;0.80;;;;;;;32.13;28.40;101136.34;5059194;28;20040;-67
2022/07/17 10:40:05;;;;;;;2.60;1.02;;;;;;;32.23;28.15;101136.22;5043018;28;20028;-67
2022/07/17 10:42:47;;;;;;;2.15;1.15;;;;;;;32.24;27.76;101125.53;5069221;28;20035;-67
2022/07/17 10:45:20;;;;;;;3.15;0.85;;;;;;;32.36;27.73;101130.72;5076298;28;20064;-67
2022/07/17 10:47:51;;;;;;;1.33;0.80;;;;;;;32.38;27.52;101130.28;5076139;28;20025;-67
2022/07/17 10:50:24;;;;;;;3.08;1.00;;;;;;;32.28;27.03;101129.97;5059520;28;20036;-67
2022/07/17 10:53:09;;;;;;;2.25;0.98;;;;;;;32.37;26.98;101128.66;5054648;28;20038;-67
2022/07/17 10:55:36;;;;;;;2.55;0.90;;;;;;;32.41;27.39;101123.69;5060514;28;20028;-67
2022/07/17 10:58:02;;;;;;;2.45;0.80;;;;;;;32.52;27.33;101123.59;5039109;28;20057;-67
2022/07/17 11:00:28;;;;;;;1.45;0.80;;;;;;;32.50;27.32;101126.88;5055885;28;20033;-67
2022/07/17 11:02:54;;;;;;;5.57;0.85;;;;;;;32.56;27.15;101119.38;5075902;28;20111;-67
2022/07/17 11:05:19;;;;;;;1.13;0.80;;;;;;;32.66;27.16;101121.31;5075460;28;20032;-67
2022/07/17 11:08:08;;;;;;;1.80;0.70;;;;;;;32.80;26.88;101126.03;5075723;28;20084;-67
2022/07/17 11:10:35;;;;;;;3.63;1.05;;;;;;;32.87;27.17;101111.53;5075536;28;20056;-67
2022/07/17 11:13:11;;;;;;;2.83;1.13;;;;;;;32.87;26.76;101119.38;5059094;28;20720;-67
2022/07/17 11:15:40;;;;;;;4.07;0.75;;;;;;;32.85;27.02;101111.19;5059475;28;20032;-67
2022/07/17 11:18:11;;;;;;;5.90;1.20;;;;;;;32.91;26.99;101111.50;5037647;28;20067;-67
2022/07/17 11:20:46;;;;;;;3.47;0.88;;;;;;;32.91;26.70;101111.50;5056616;28;20020;-67
2022/07/17 11:23:12;;;;;;;1.35;0.80;;;;;;;32.97;26.78;101108.97;5058866;28;20028;-67